sensor_id;sensor_type;location;lat;lon;timestamp;temperature;humidity
28438;DHT22;15667;52.376;9.708;2023-04-15T00:00:13;7.40;99.90
28438;DHT22;15667;52.376;9.708;2023-04-15T00:02:40;7.90;99.90
28438;DHT22;15667;52.376;9.708;2023-04-15T00:05:05;7.30;99.90
28438;DHT22;15667;52.376;9.708;2023-04-15T00:07:31;7.80;99.90
28438;DHT22;15667;52.376;9.708;2023-04-15T00:09:57;7.80;99.90
28438;DHT22;15667;52.376;9.708;2023-04-15T00:12:23;9.00;99.90
28438;DHT22;15667;52.376;9.708;2023-04-15T00:14:48;8.20;99.90
28438;DHT22;15667;52.376;9.708;2023-04-15T00:17:15;7.40;99.90
28438;DHT22;15667;52.376;9.708;2023-04-15T00:19:41;7.30;99.90
28438;DHT22;15667;52.376;9.708;2023-04-15T00:22:06;7.70;99.90
28438;DHT22;15667;52.376;9.708;2023-04-15T00:24:32;7.50;99.90
28438;DHT22;15667;52.376;9.708;2023-04-15T00:26:58;8.80;99.90
28438;DHT22;15667;52.376;9.708;2023-04-15T00:29:24;9.40;99.90
28438;DHT22;15667;52.376;9.708;2023-04-15T00:31:50;7.70;99.90
28438;DHT22;15667;52.376;9.708;2023-04-15T00:34:15;7.70;99.90
28438;DHT22;15667;52.376;9.708;2023-04-15T00:36:41;7.90;99.90
28438;DHT22;15667;52.376;9.708;2023-04-15T00:39:06;7.80;99.90
28438;DHT22;15667;52.376;9.708;2023-04-15T00:41:32;7.70;99.90
28438;DHT22;15667;52.376;9.708;2023-04-15T00:43:58;7.70;99.90
28438;DHT22;15667;52.376;9.708;2023-04-15T00:46:25;7.70;99.90
28438;DHT22;15667;52.376;9.708;2023-04-15T00:48:51;7.60;99.90
28438;DHT22;15667;52.376;9.708;2023-04-15T00:51:17;7.70;99.90
28438;DHT22;15667;52.376;9.708;2023-04-15T00:53:43;8.10;99.90
28438;DHT22;15667;52.376;9.708;2023-04-15T00:56:09;7.10;99.90
28438;DHT22;15667;52.376;9.708;2023-04-15T00:58:34;7.20;99.90
28438;DHT22;15667;52.376;9.708;2023-04-15T01:01:01;7.60;99.90
28438;DHT22;15667;52.376;9.708;2023-04-15T01:03:27;7.90;99.90
28438;DHT22;15667;52.376;9.708;2023-04-15T01:05:53;8.10;99.90
28438;DHT22;15667;52.376;9.708;2023-04-15T01:08:28;7.60;99.90
28438;DHT22;15667;52.376;9.708;2023-04-15T01:10:57;7.50;99.90
28438;DHT22;15667;52.376;9.708;2023-04-15T01:13:23;7.50;99.90
28438;DHT22;15667;52.376;9.708;2023-04-15T01:15:49;7.50;99.90
28438;DHT22;15667;52.376;9.708;2023-04-15T01:18:14;7.50;99.90
28438;DHT22;15667;52.376;9.708;2023-04-15T01:20:40;8.00;99.90
28438;DHT22;15667;52.376;9.708;2023-04-15T01:23:05;7.50;99.90
28438;DHT22;15667;52.376;9.708;2023-04-15T01:25:32;7.40;99.90
28438;DHT22;15667;52.376;9.708;2023-04-15T01:27:58;7.60;99.90
28438;DHT22;15667;52.376;9.708;2023-04-15T01:30:24;7.20;99.90
28438;DHT22;15667;52.376;9.708;2023-04-15T01:32:51;7.30;99.90
28438;DHT22;15667;52.376;9.708;2023-04-15T01:35:16;7.40;99.90
28438;DHT22;15667;52.376;9.708;2023-04-15T01:37:42;7.60;99.90
28438;DHT22;15667;52.376;9.708;2023-04-15T01:40:08;7.60;99.90
28438;DHT22;15667;52.376;9.708;2023-04-15T01:42:34;7.60;99.90
28438;DHT22;15667;52.376;9.708;2023-04-15T01:45:00;7.40;99.90
28438;DHT22;15667;52.376;9.708;2023-04-15T01:47:26;7.50;99.90
28438;DHT22;15667;52.376;9.708;2023-04-15T01:49:52;7.50;99.90
28438;DHT22;15667;52.376;9.708;2023-04-15T01:52:17;7.40;99.90
28438;DHT22;15667;52.376;9.708;2023-04-15T01:54:43;8.00;99.90
28438;DHT22;15667;52.376;9.708;2023-04-15T01:57:08;7.50;99.90
28438;DHT22;15667;52.376;9.708;2023-04-15T01:59:34;7.50;99.90
28438;DHT22;15667;52.376;9.708;2023-04-15T02:02:00;7.40;99.90
28438;DHT22;15667;52.376;9.708;2023-04-15T02:04:25;7.70;99.90
28438;DHT22;15667;52.376;9.708;2023-04-15T02:06:52;8.20;99.90
28438;DHT22;15667;52.376;9.708;2023-04-15T02:09:17;7.50;99.90
28438;DHT22;15667;52.376;9.708;2023-04-15T02:11:45;7.80;99.90
28438;DHT22;15667;52.376;9.708;2023-04-15T02:14:10;7.60;99.90
28438;DHT22;15667;52.376;9.708;2023-04-15T02:16:36;7.60;99.90
28438;DHT22;15667;52.376;9.708;2023-04-15T02:19:02;7.60;99.90
28438;DHT22;15667;52.376;9.708;2023-04-15T02:21:28;9.60;99.90
28438;DHT22;15667;52.376;9.708;2023-04-15T02:23:56;8.90;99.90
28438;DHT22;15667;52.376;9.708;2023-04-15T02:26:22;7.80;99.90
28438;DHT22;15667;52.376;9.708;2023-04-15T02:28:49;8.50;99.90
28438;DHT22;15667;52.376;9.708;2023-04-15T02:31:17;8.70;99.90
28438;DHT22;15667;52.376;9.708;2023-04-15T02:33:43;7.80;99.90
28438;DHT22;15667;52.376;9.708;2023-04-15T02:36:09;7.70;99.90
28438;DHT22;15667;52.376;9.708;2023-04-15T02:38:36;7.00;99.90
28438;DHT22;15667;52.376;9.708;2023-04-15T02:41:02;7.00;99.90
28438;DHT22;15667;52.376;9.708;2023-04-15T02:43:28;7.10;99.90
28438;DHT22;15667;52.376;9.708;2023-04-15T02:45:53;7.80;99.90
28438;DHT22;15667;52.376;9.708;2023-04-15T02:48:19;7.80;99.90
28438;DHT22;15667;52.376;9.708;2023-04-15T02:50:45;7.70;99.90
28438;DHT22;15667;52.376;9.708;2023-04-15T02:53:11;7.70;99.90
28438;DHT22;15667;52.376;9.708;2023-04-15T02:55:37;8.10;99.90
28438;DHT22;15667;52.376;9.708;2023-04-15T02:58:03;7.70;99.90
28438;DHT22;15667;52.376;9.708;2023-04-15T03:00:28;9.40;99.90
28438;DHT22;15667;52.376;9.708;2023-04-15T03:02:58;7.80;99.90
28438;DHT22;15667;52.376;9.708;2023-04-15T03:05:23;7.80;99.90
28438;DHT22;15667;52.376;9.708;2023-04-15T03:07:50;7.80;99.90
28438;DHT22;15667;52.376;9.708;2023-04-15T03:10:16;7.50;99.90
28438;DHT22;15667;52.376;9.708;2023-04-15T03:12:41;7.80;99.90
28438;DHT22;15667;52.376;9.708;2023-04-15T03:15:07;9.00;99.90
28438;DHT22;15667;52.376;9.708;2023-04-15T03:17:32;7.70;99.90
28438;DHT22;15667;52.376;9.708;2023-04-15T03:19:58;7.70;99.90
28438;DHT22;15667;52.376;9.708;2023-04-15T03:22:23;7.80;99.90
28438;DHT22;15667;52.376;9.708;2023-04-15T03:24:50;7.70;99.90
28438;DHT22;15667;52.376;9.708;2023-04-15T03:27:16;8.60;99.90
28438;DHT22;15667;52.376;9.708;2023-04-15T03:29:41;7.60;99.90
28438;DHT22;15667;52.376;9.708;2023-04-15T03:32:07;7.30;99.90
28438;DHT22;15667;52.376;9.708;2023-04-15T03:34:32;7.10;99.90
28438;DHT22;15667;52.376;9.708;2023-04-15T03:36:58;7.80;99.90
28438;DHT22;15667;52.376;9.708;2023-04-15T03:39:23;7.30;99.90
28438;DHT22;15667;52.376;9.708;2023-04-15T03:41:49;7.70;99.90
28438;DHT22;15667;52.376;9.708;2023-04-15T03:44:15;7.70;99.90
28438;DHT22;15667;52.376;9.708;2023-04-15T03:46:40;9.70;99.90
28438;DHT22;15667;52.376;9.708;2023-04-15T03:49:06;8.10;99.90
28438;DHT22;15667;52.376;9.708;2023-04-15T03:51:32;7.60;99.90
28438;DHT22;15667;52.376;9.708;2023-04-15T03:53:57;9.10;99.90
28438;DHT22;15667;52.376;9.708;2023-04-15T03:56:23;7.60;99.90
28438;DHT22;15667;52.376;9.708;2023-04-15T03:58:49;7.30;99.90
28438;DHT22;15667;52.376;9.708;2023-04-15T04:01:14;7.50;99.90
28438;DHT22;15667;52.376;9.708;2023-04-15T04:03:40;7.20;99.90
28438;DHT22;15667;52.376;9.708;2023-04-15T04:06:06;8.50;99.90
28438;DHT22;15667;52.376;9.708;2023-04-15T04:08:32;8.90;99.90
28438;DHT22;15667;52.376;9.708;2023-04-15T04:10:58;7.50;99.90
28438;DHT22;15667;52.376;9.708;2023-04-15T04:13:23;7.60;99.90
28438;DHT22;15667;52.376;9.708;2023-04-15T04:15:49;8.00;99.90
28438;DHT22;15667;52.376;9.708;2023-04-15T04:18:23;6.80;99.90
28438;DHT22;15667;52.376;9.708;2023-04-15T04:20:49;7.40;99.90
28438;DHT22;15667;52.376;9.708;2023-04-15T04:23:15;7.90;99.90
28438;DHT22;15667;52.376;9.708;2023-04-15T04:25:40;7.20;99.90
28438;DHT22;15667;52.376;9.708;2023-04-15T04:28:06;7.10;99.90
28438;DHT22;15667;52.376;9.708;2023-04-15T04:30:32;8.20;99.90
28438;DHT22;15667;52.376;9.708;2023-04-15T04:32:57;7.10;99.90
28438;DHT22;15667;52.376;9.708;2023-04-15T04:35:23;7.00;99.90
28438;DHT22;15667;52.376;9.708;2023-04-15T04:37:48;7.00;99.90
28438;DHT22;15667;52.376;9.708;2023-04-15T04:40:15;7.00;99.90
28438;DHT22;15667;52.376;9.708;2023-04-15T04:42:40;7.00;99.90
28438;DHT22;15667;52.376;9.708;2023-04-15T04:45:06;7.30;99.90
28438;DHT22;15667;52.376;9.708;2023-04-15T04:47:31;7.00;99.90
28438;DHT22;15667;52.376;9.708;2023-04-15T04:49:57;7.30;99.90
28438;DHT22;15667;52.376;9.708;2023-04-15T04:52:23;6.90;99.90
28438;DHT22;15667;52.376;9.708;2023-04-15T04:54:49;6.90;99.90
28438;DHT22;15667;52.376;9.708;2023-04-15T04:57:15;6.80;99.90
28438;DHT22;15667;52.376;9.708;2023-04-15T04:59:40;8.10;99.90
28438;DHT22;15667;52.376;9.708;2023-04-15T05:02:06;6.90;99.90
28438;DHT22;15667;52.376;9.708;2023-04-15T05:04:31;6.80;99.90
28438;DHT22;15667;52.376;9.708;2023-04-15T05:06:57;6.80;99.90
28438;DHT22;15667;52.376;9.708;2023-04-15T05:09:23;6.90;99.90
28438;DHT22;15667;52.376;9.708;2023-04-15T05:11:49;6.90;99.90
28438;DHT22;15667;52.376;9.708;2023-04-15T05:14:14;6.90;99.90
28438;DHT22;15667;52.376;9.708;2023-04-15T05:16:40;6.90;99.90
28438;DHT22;15667;52.376;9.708;2023-04-15T05:19:06;6.90;99.90
28438;DHT22;15667;52.376;9.708;2023-04-15T05:21:32;6.90;99.90
28438;DHT22;15667;52.376;9.708;2023-04-15T05:23:57;6.90;99.90
28438;DHT22;15667;52.376;9.708;2023-04-15T05:26:23;6.80;99.90
28438;DHT22;15667;52.376;9.708;2023-04-15T05:28:49;6.80;99.90
28438;DHT22;15667;52.376;9.708;2023-04-15T05:31:15;6.80;99.90
28438;DHT22;15667;52.376;9.708;2023-04-15T05:33:40;6.90;99.90
28438;DHT22;15667;52.376;9.708;2023-04-15T05:36:11;6.90;99.90
28438;DHT22;15667;52.376;9.708;2023-04-15T05:38:37;7.80;99.90
28438;DHT22;15667;52.376;9.708;2023-04-15T05:41:03;5.90;99.90
28438;DHT22;15667;52.376;9.708;2023-04-15T05:43:28;7.00;99.90
28438;DHT22;15667;52.376;9.708;2023-04-15T05:45:54;7.90;99.90
28438;DHT22;15667;52.376;9.708;2023-04-15T05:48:20;7.50;99.90
28438;DHT22;15667;52.376;9.708;2023-04-15T05:50:46;7.60;99.90
28438;DHT22;15667;52.376;9.708;2023-04-15T05:53:11;7.50;99.90
28438;DHT22;15667;52.376;9.708;2023-04-15T05:55:37;6.80;99.90
28438;DHT22;15667;52.376;9.708;2023-04-15T05:58:02;7.20;99.90
28438;DHT22;15667;52.376;9.708;2023-04-15T06:00:28;6.80;99.90
28438;DHT22;15667;52.376;9.708;2023-04-15T06:02:54;6.90;99.90
28438;DHT22;15667;52.376;9.708;2023-04-15T06:05:20;7.00;99.90
28438;DHT22;15667;52.376;9.708;2023-04-15T06:07:46;6.90;99.90
28438;DHT22;15667;52.376;9.708;2023-04-15T06:10:11;7.00;99.90
28438;DHT22;15667;52.376;9.708;2023-04-15T06:12:37;6.90;99.90
28438;DHT22;15667;52.376;9.708;2023-04-15T06:15:02;7.00;99.90
28438;DHT22;15667;52.376;9.708;2023-04-15T06:17:28;6.90;99.90
28438;DHT22;15667;52.376;9.708;2023-04-15T06:19:53;6.90;99.90
28438;DHT22;15667;52.376;9.708;2023-04-15T06:22:20;6.90;99.90
28438;DHT22;15667;52.376;9.708;2023-04-15T06:24:46;6.90;99.90
28438;DHT22;15667;52.376;9.708;2023-04-15T06:27:12;6.80;99.90
28438;DHT22;15667;52.376;9.708;2023-04-15T06:29:37;6.90;99.90
28438;DHT22;15667;52.376;9.708;2023-04-15T06:32:03;6.90;99.90
28438;DHT22;15667;52.376;9.708;2023-04-15T06:34:29;6.90;99.90
28438;DHT22;15667;52.376;9.708;2023-04-15T06:36:54;7.00;99.90
28438;DHT22;15667;52.376;9.708;2023-04-15T06:39:21;7.00;99.90
28438;DHT22;15667;52.376;9.708;2023-04-15T06:41:46;7.00;99.90
28438;DHT22;15667;52.376;9.708;2023-04-15T06:44:12;6.90;99.90
28438;DHT22;15667;52.376;9.708;2023-04-15T06:46:37;6.90;99.90
28438;DHT22;15667;52.376;9.708;2023-04-15T06:49:03;7.00;99.90
28438;DHT22;15667;52.376;9.708;2023-04-15T06:51:29;7.00;99.90
28438;DHT22;15667;52.376;9.708;2023-04-15T06:53:55;7.50;99.90
28438;DHT22;15667;52.376;9.708;2023-04-15T06:56:21;7.00;99.90
28438;DHT22;15667;52.376;9.708;2023-04-15T06:58:47;7.00;99.90
28438;DHT22;15667;52.376;9.708;2023-04-15T07:01:13;6.90;99.90
28438;DHT22;15667;52.376;9.708;2023-04-15T07:03:38;7.00;99.90
28438;DHT22;15667;52.376;9.708;2023-04-15T07:06:04;7.00;99.90
28438;DHT22;15667;52.376;9.708;2023-04-15T07:08:31;7.00;99.90
28438;DHT22;15667;52.376;9.708;2023-04-15T07:10:58;7.10;99.90
28438;DHT22;15667;52.376;9.708;2023-04-15T07:13:24;7.00;99.90
28438;DHT22;15667;52.376;9.708;2023-04-15T07:15:49;7.10;99.90
28438;DHT22;15667;52.376;9.708;2023-04-15T07:18:15;7.10;99.90
28438;DHT22;15667;52.376;9.708;2023-04-15T07:20:40;7.10;99.90
28438;DHT22;15667;52.376;9.708;2023-04-15T07:23:06;7.10;99.90
28438;DHT22;15667;52.376;9.708;2023-04-15T07:25:32;7.20;99.90
28438;DHT22;15667;52.376;9.708;2023-04-15T07:27:57;7.10;99.90
28438;DHT22;15667;52.376;9.708;2023-04-15T07:30:23;7.10;99.90
28438;DHT22;15667;52.376;9.708;2023-04-15T07:32:51;7.10;99.90
28438;DHT22;15667;52.376;9.708;2023-04-15T07:35:17;7.80;99.90
28438;DHT22;15667;52.376;9.708;2023-04-15T07:37:45;7.00;99.90
28438;DHT22;15667;52.376;9.708;2023-04-15T07:40:11;7.10;99.90
28438;DHT22;15667;52.376;9.708;2023-04-15T07:42:36;7.10;99.90
28438;DHT22;15667;52.376;9.708;2023-04-15T07:45:02;7.00;99.90
28438;DHT22;15667;52.376;9.708;2023-04-15T07:47:28;7.10;99.90
28438;DHT22;15667;52.376;9.708;2023-04-15T07:49:53;7.20;99.90
28438;DHT22;15667;52.376;9.708;2023-04-15T07:52:19;8.20;99.90
28438;DHT22;15667;52.376;9.708;2023-04-15T07:54:44;7.20;99.90
28438;DHT22;15667;52.376;9.708;2023-04-15T07:57:10;7.20;99.90
28438;DHT22;15667;52.376;9.708;2023-04-15T07:59:36;7.20;99.90
28438;DHT22;15667;52.376;9.708;2023-04-15T08:02:01;7.30;99.90
28438;DHT22;15667;52.376;9.708;2023-04-15T08:04:27;7.50;99.90
28438;DHT22;15667;52.376;9.708;2023-04-15T08:06:53;7.30;99.90
28438;DHT22;15667;52.376;9.708;2023-04-15T08:09:19;7.30;99.90
28438;DHT22;15667;52.376;9.708;2023-04-15T08:11:47;7.70;99.90
28438;DHT22;15667;52.376;9.708;2023-04-15T08:14:12;8.30;99.90
28438;DHT22;15667;52.376;9.708;2023-04-15T08:16:38;7.40;99.90
28438;DHT22;15667;52.376;9.708;2023-04-15T08:19:03;7.40;99.90
28438;DHT22;15667;52.376;9.708;2023-04-15T08:21:29;7.30;99.90
28438;DHT22;15667;52.376;9.708;2023-04-15T08:23:55;7.40;99.90
28438;DHT22;15667;52.376;9.708;2023-04-15T08:26:30;7.60;99.90
28438;DHT22;15667;52.376;9.708;2023-04-15T08:28:55;7.40;99.90
28438;DHT22;15667;52.376;9.708;2023-04-15T08:31:21;7.50;99.90
28438;DHT22;15667;52.376;9.708;2023-04-15T08:33:47;7.30;99.90
28438;DHT22;15667;52.376;9.708;2023-04-15T08:36:12;7.70;99.90
28438;DHT22;15667;52.376;9.708;2023-04-15T08:38:38;8.20;99.90
28438;DHT22;15667;52.376;9.708;2023-04-15T08:41:10;8.20;99.90
28438;DHT22;15667;52.376;9.708;2023-04-15T08:43:38;8.30;99.90
28438;DHT22;15667;52.376;9.708;2023-04-15T08:46:09;7.40;99.90
28438;DHT22;15667;52.376;9.708;2023-04-15T08:48:35;7.50;99.90
28438;DHT22;15667;52.376;9.708;2023-04-15T08:51:02;7.50;99.90
28438;DHT22;15667;52.376;9.708;2023-04-15T08:53:28;7.50;99.90
28438;DHT22;15667;52.376;9.708;2023-04-15T08:55:55;8.20;99.90
28438;DHT22;15667;52.376;9.708;2023-04-15T08:58:21;7.50;99.90
28438;DHT22;15667;52.376;9.708;2023-04-15T09:00:47;7.60;99.90
28438;DHT22;15667;52.376;9.708;2023-04-15T09:03:12;7.60;99.90
28438;DHT22;15667;52.376;9.708;2023-04-15T09:05:38;7.60;99.90
28438;DHT22;15667;52.376;9.708;2023-04-15T09:08:04;7.60;99.90
28438;DHT22;15667;52.376;9.708;2023-04-15T09:10:30;7.60;99.90
28438;DHT22;15667;52.376;9.708;2023-04-15T09:12:56;8.70;99.90
28438;DHT22;15667;52.376;9.708;2023-04-15T09:15:25;7.60;99.90
28438;DHT22;15667;52.376;9.708;2023-04-15T09:17:54;7.70;99.90
28438;DHT22;15667;52.376;9.708;2023-04-15T09:20:20;7.80;99.90
28438;DHT22;15667;52.376;9.708;2023-04-15T09:22:46;7.80;99.90
28438;DHT22;15667;52.376;9.708;2023-04-15T09:27:50;7.80;99.90
28438;DHT22;15667;52.376;9.708;2023-04-15T09:30:16;7.80;99.90
28438;DHT22;15667;52.376;9.708;2023-04-15T09:32:48;8.20;99.90
28438;DHT22;15667;52.376;9.708;2023-04-15T09:35:15;7.80;99.90
28438;DHT22;15667;52.376;9.708;2023-04-15T09:37:44;7.80;99.90
28438;DHT22;15667;52.376;9.708;2023-04-15T09:40:09;7.80;99.90
28438;DHT22;15667;52.376;9.708;2023-04-15T09:51:35;7.80;99.90
28438;DHT22;15667;52.376;9.708;2023-04-15T09:57:05;7.70;99.90
28438;DHT22;15667;52.376;9.708;2023-04-15T09:59:40;7.60;99.90
28438;DHT22;15667;52.376;9.708;2023-04-15T10:59:15;8.40;99.90
28438;DHT22;15667;52.376;9.708;2023-04-15T11:01:51;7.70;99.90
28438;DHT22;15667;52.376;9.708;2023-04-15T11:07:06;8.40;99.90
28438;DHT22;15667;52.376;9.708;2023-04-15T11:09:32;8.50;99.90
28438;DHT22;15667;52.376;9.708;2023-04-15T11:12:04;8.70;99.90
28438;DHT22;15667;52.376;9.708;2023-04-15T11:14:35;8.20;99.90
28438;DHT22;15667;52.376;9.708;2023-04-15T11:17:03;8.70;99.90
28438;DHT22;15667;52.376;9.708;2023-04-15T11:19:35;8.70;99.90
28438;DHT22;15667;52.376;9.708;2023-04-15T11:22:10;9.40;99.90
28438;DHT22;15667;52.376;9.708;2023-04-15T11:24:36;8.60;99.90
28438;DHT22;15667;52.376;9.708;2023-04-15T11:27:01;8.60;99.90
28438;DHT22;15667;52.376;9.708;2023-04-15T11:29:30;8.60;99.90
28438;DHT22;15667;52.376;9.708;2023-04-15T11:32:10;8.70;99.90
28438;DHT22;15667;52.376;9.708;2023-04-15T11:34:36;8.60;99.90
28438;DHT22;15667;52.376;9.708;2023-04-15T11:37:05;9.90;99.90
28438;DHT22;15667;52.376;9.708;2023-04-15T11:39:31;8.60;99.90
28438;DHT22;15667;52.376;9.708;2023-04-15T11:41:56;8.60;99.90
28438;DHT22;15667;52.376;9.708;2023-04-15T11:44:22;9.10;99.90
28438;DHT22;15667;52.376;9.708;2023-04-15T11:46:47;8.80;99.90
28438;DHT22;15667;52.376;9.708;2023-04-15T11:49:26;8.70;99.90
28438;DHT22;15667;52.376;9.708;2023-04-15T11:51:52;8.70;99.90
28438;DHT22;15667;52.376;9.708;2023-04-15T11:54:18;8.70;99.90
28438;DHT22;15667;52.376;9.708;2023-04-15T11:56:43;9.50;99.90
28438;DHT22;15667;52.376;9.708;2023-04-15T11:59:14;10.10;99.90
28438;DHT22;15667;52.376;9.708;2023-04-15T12:01:40;8.80;99.90
28438;DHT22;15667;52.376;9.708;2023-04-15T12:04:11;8.80;99.90
28438;DHT22;15667;52.376;9.708;2023-04-15T12:06:36;8.80;99.90
28438;DHT22;15667;52.376;9.708;2023-04-15T12:09:07;8.90;99.90
28438;DHT22;15667;52.376;9.708;2023-04-15T12:14:10;8.90;99.90
28438;DHT22;15667;52.376;9.708;2023-04-15T12:16:43;8.80;99.90
28438;DHT22;15667;52.376;9.708;2023-04-15T12:19:11;8.00;99.90
28438;DHT22;15667;52.376;9.708;2023-04-15T12:21:37;8.90;99.90
28438;DHT22;15667;52.376;9.708;2023-04-15T12:24:04;8.30;99.90
28438;DHT22;15667;52.376;9.708;2023-04-15T12:26:32;9.10;99.90
28438;DHT22;15667;52.376;9.708;2023-04-15T12:29:02;8.80;99.90
28438;DHT22;15667;52.376;9.708;2023-04-15T12:31:30;8.90;99.90
28438;DHT22;15667;52.376;9.708;2023-04-15T12:33:56;8.90;99.90
28438;DHT22;15667;52.376;9.708;2023-04-15T12:36:25;9.40;99.90
28438;DHT22;15667;52.376;9.708;2023-04-15T12:38:50;9.00;99.90
28438;DHT22;15667;52.376;9.708;2023-04-15T12:41:16;9.20;99.90
28438;DHT22;15667;52.376;9.708;2023-04-15T12:43:45;9.00;99.90
28438;DHT22;15667;52.376;9.708;2023-04-15T12:46:13;8.90;99.90
28438;DHT22;15667;52.376;9.708;2023-04-15T12:48:39;9.00;99.90
28438;DHT22;15667;52.376;9.708;2023-04-15T12:51:05;8.90;99.90
28438;DHT22;15667;52.376;9.708;2023-04-15T12:53:31;9.00;99.90
28438;DHT22;15667;52.376;9.708;2023-04-15T12:55:56;11.40;99.90
28438;DHT22;15667;52.376;9.708;2023-04-15T12:58:22;8.00;99.90
28438;DHT22;15667;52.376;9.708;2023-04-15T13:00:55;10.40;99.90
28438;DHT22;15667;52.376;9.708;2023-04-15T13:03:21;9.30;99.90
28438;DHT22;15667;52.376;9.708;2023-04-15T13:05:47;10.80;99.90
28438;DHT22;15667;52.376;9.708;2023-04-15T13:08:15;9.50;99.90
28438;DHT22;15667;52.376;9.708;2023-04-15T13:11:11;9.80;99.90
28438;DHT22;15667;52.376;9.708;2023-04-15T13:13:42;9.40;99.90
28438;DHT22;15667;52.376;9.708;2023-04-15T13:16:08;9.40;99.90
28438;DHT22;15667;52.376;9.708;2023-04-15T13:18:34;11.60;99.90
28438;DHT22;15667;52.376;9.708;2023-04-15T13:21:00;10.10;99.90
28438;DHT22;15667;52.376;9.708;2023-04-15T13:23:26;9.40;99.90
28438;DHT22;15667;52.376;9.708;2023-04-15T13:25:51;9.50;99.90
28438;DHT22;15667;52.376;9.708;2023-04-15T13:28:23;10.90;99.90
28438;DHT22;15667;52.376;9.708;2023-04-15T13:30:49;9.60;99.90
28438;DHT22;15667;52.376;9.708;2023-04-15T13:33:15;10.60;99.90
28438;DHT22;15667;52.376;9.708;2023-04-15T13:36:00;11.60;99.90
28438;DHT22;15667;52.376;9.708;2023-04-15T13:38:31;10.40;99.90
28438;DHT22;15667;52.376;9.708;2023-04-15T13:40:57;9.70;99.90
28438;DHT22;15667;52.376;9.708;2023-04-15T13:43:24;12.00;99.90
28438;DHT22;15667;52.376;9.708;2023-04-15T13:45:50;9.90;99.90
28438;DHT22;15667;52.376;9.708;2023-04-15T13:48:16;8.30;99.90
28438;DHT22;15667;52.376;9.708;2023-04-15T13:50:44;10.80;99.90
28438;DHT22;15667;52.376;9.708;2023-04-15T13:53:10;10.10;99.90
28438;DHT22;15667;52.376;9.708;2023-04-15T13:55:35;11.90;99.90
28438;DHT22;15667;52.376;9.708;2023-04-15T13:58:06;12.40;99.90
28438;DHT22;15667;52.376;9.708;2023-04-15T14:00:32;11.20;99.90
28438;DHT22;15667;52.376;9.708;2023-04-15T14:02:57;11.20;99.90
28438;DHT22;15667;52.376;9.708;2023-04-15T14:05:26;12.30;99.90
28438;DHT22;15667;52.376;9.708;2023-04-15T14:07:52;11.40;99.90
28438;DHT22;15667;52.376;9.708;2023-04-15T14:10:22;11.60;99.90
28438;DHT22;15667;52.376;9.708;2023-04-15T14:12:47;11.90;99.90
28438;DHT22;15667;52.376;9.708;2023-04-15T14:15:13;12.90;99.90
28438;DHT22;15667;52.376;9.708;2023-04-15T14:17:39;14.40;99.90
28438;DHT22;15667;52.376;9.708;2023-04-15T14:20:06;12.90;99.90
28438;DHT22;15667;52.376;9.708;2023-04-15T14:22:32;13.80;99.90
28438;DHT22;15667;52.376;9.708;2023-04-15T14:25:01;13.60;99.90
28438;DHT22;15667;52.376;9.708;2023-04-15T14:27:27;14.90;99.90
28438;DHT22;15667;52.376;9.708;2023-04-15T14:29:52;13.20;99.90
28438;DHT22;15667;52.376;9.708;2023-04-15T14:32:18;12.80;99.90
28438;DHT22;15667;52.376;9.708;2023-04-15T14:34:44;12.50;99.90
28438;DHT22;15667;52.376;9.708;2023-04-15T14:37:10;10.70;99.90
28438;DHT22;15667;52.376;9.708;2023-04-15T14:39:35;13.60;99.90
28438;DHT22;15667;52.376;9.708;2023-04-15T14:42:01;12.60;99.90
28438;DHT22;15667;52.376;9.708;2023-04-15T14:44:26;13.30;99.90
28438;DHT22;15667;52.376;9.708;2023-04-15T14:46:52;13.30;99.90
28438;DHT22;15667;52.376;9.708;2023-04-15T14:49:18;12.90;99.90
28438;DHT22;15667;52.376;9.708;2023-04-15T14:51:43;13.00;99.90
28438;DHT22;15667;52.376;9.708;2023-04-15T14:54:10;13.00;99.90
28438;DHT22;15667;52.376;9.708;2023-04-15T14:56:36;13.70;99.90
28438;DHT22;15667;52.376;9.708;2023-04-15T14:59:01;12.80;99.90
28438;DHT22;15667;52.376;9.708;2023-04-15T15:01:27;12.80;99.90
28438;DHT22;15667;52.376;9.708;2023-04-15T15:03:52;13.60;99.90
28438;DHT22;15667;52.376;9.708;2023-04-15T15:06:19;12.80;99.90
28438;DHT22;15667;52.376;9.708;2023-04-15T15:08:44;13.70;99.90
28438;DHT22;15667;52.376;9.708;2023-04-15T15:11:10;13.40;99.90
28438;DHT22;15667;52.376;9.708;2023-04-15T15:13:36;14.00;99.90
28438;DHT22;15667;52.376;9.708;2023-04-15T15:16:01;13.30;99.90
28438;DHT22;15667;52.376;9.708;2023-04-15T15:18:27;13.40;99.90
28438;DHT22;15667;52.376;9.708;2023-04-15T15:20:53;13.60;99.90
28438;DHT22;15667;52.376;9.708;2023-04-15T15:23:18;13.60;99.90
28438;DHT22;15667;52.376;9.708;2023-04-15T15:25:44;14.10;99.90
28438;DHT22;15667;52.376;9.708;2023-04-15T15:28:10;13.70;99.90
28438;DHT22;15667;52.376;9.708;2023-04-15T15:30:35;12.90;99.90
28438;DHT22;15667;52.376;9.708;2023-04-15T15:33:01;14.70;99.90
28438;DHT22;15667;52.376;9.708;2023-04-15T15:35:26;12.90;99.90
28438;DHT22;15667;52.376;9.708;2023-04-15T15:37:54;13.50;99.90
28438;DHT22;15667;52.376;9.708;2023-04-15T15:40:20;14.40;99.90
28438;DHT22;15667;52.376;9.708;2023-04-15T15:42:45;13.40;99.90
28438;DHT22;15667;52.376;9.708;2023-04-15T15:45:14;14.10;99.90
28438;DHT22;15667;52.376;9.708;2023-04-15T15:47:39;12.30;99.90
28438;DHT22;15667;52.376;9.708;2023-04-15T15:50:05;14.20;99.90
28438;DHT22;15667;52.376;9.708;2023-04-15T15:52:33;13.00;99.90
28438;DHT22;15667;52.376;9.708;2023-04-15T15:54:59;13.00;99.90
28438;DHT22;15667;52.376;9.708;2023-04-15T15:57:26;13.00;99.90
28438;DHT22;15667;52.376;9.708;2023-04-15T15:59:51;13.00;99.90
28438;DHT22;15667;52.376;9.708;2023-04-15T16:02:17;13.00;99.90
28438;DHT22;15667;52.376;9.708;2023-04-15T16:04:42;13.00;99.90
28438;DHT22;15667;52.376;9.708;2023-04-15T16:07:09;13.10;99.90
28438;DHT22;15667;52.376;9.708;2023-04-15T16:09:35;13.20;99.90
28438;DHT22;15667;52.376;9.708;2023-04-15T16:12:00;14.60;99.90
28438;DHT22;15667;52.376;9.708;2023-04-15T16:14:29;13.30;99.90
28438;DHT22;15667;52.376;9.708;2023-04-15T16:16:55;14.50;99.90
28438;DHT22;15667;52.376;9.708;2023-04-15T16:19:21;13.70;99.90
28438;DHT22;15667;52.376;9.708;2023-04-15T16:24:34;13.50;99.90
28438;DHT22;15667;52.376;9.708;2023-04-15T16:26:59;13.60;99.90
28438;DHT22;15667;52.376;9.708;2023-04-15T16:29:26;13.60;99.90
28438;DHT22;15667;52.376;9.708;2023-04-15T16:31:53;14.30;99.90
28438;DHT22;15667;52.376;9.708;2023-04-15T16:34:22;15.00;99.90
28438;DHT22;15667;52.376;9.708;2023-04-15T16:36:48;13.40;99.90
28438;DHT22;15667;52.376;9.708;2023-04-15T16:39:13;14.50;99.90
28438;DHT22;15667;52.376;9.708;2023-04-15T16:41:39;13.40;99.90
28438;DHT22;15667;52.376;9.708;2023-04-15T16:44:05;11.70;99.90
28438;DHT22;15667;52.376;9.708;2023-04-15T16:46:32;13.10;99.90
28438;DHT22;15667;52.376;9.708;2023-04-15T16:49:01;12.70;99.90
28438;DHT22;15667;52.376;9.708;2023-04-15T16:51:27;12.80;99.90
28438;DHT22;15667;52.376;9.708;2023-04-15T16:53:54;14.20;99.90
28438;DHT22;15667;52.376;9.708;2023-04-15T16:56:20;12.70;99.90